sensor_id;sensor_type;location;lat;lon;timestamp;P1;durP1;ratioP1;P2;durP2;ratioP2
50789;SDS011;37287;47.554;7.844;2024-02-26T00:00:40;2.40;;;0.60;;
50789;SDS011;37287;47.554;7.844;2024-02-26T00:03:07;0.70;;;0.70;;
50789;SDS011;37287;47.554;7.844;2024-02-26T00:05:34;1.05;;;0.77;;
50789;SDS011;37287;47.554;7.844;2024-02-26T00:08:01;0.70;;;0.70;;
50789;SDS011;37287;47.554;7.844;2024-02-26T00:10:31;0.50;;;0.40;;
50789;SDS011;37287;47.554;7.844;2024-02-26T00:12:57;0.70;;;0.70;;
50789;SDS011;37287;47.554;7.844;2024-02-26T00:15:24;1.65;;;0.60;;
50789;SDS011;37287;47.554;7.844;2024-02-26T00:17:51;0.70;;;0.70;;
50789;SDS011;37287;47.554;7.844;2024-02-26T00:20:18;0.70;;;0.70;;
50789;SDS011;37287;47.554;7.844;2024-02-26T00:22:45;1.27;;;0.50;;
50789;SDS011;37287;47.554;7.844;2024-02-26T00:25:12;1.05;;;0.80;;
50789;SDS011;37287;47.554;7.844;2024-02-26T00:27:39;0.70;;;0.70;;
50789;SDS011;37287;47.554;7.844;2024-02-26T00:30:08;0.70;;;0.70;;
50789;SDS011;37287;47.554;7.844;2024-02-26T00:32:35;0.77;;;0.77;;
50789;SDS011;37287;47.554;7.844;2024-02-26T00:35:02;0.80;;;0.80;;
50789;SDS011;37287;47.554;7.844;2024-02-26T00:37:29;0.68;;;0.68;;
50789;SDS011;37287;47.554;7.844;2024-02-26T00:39:56;1.80;;;1.20;;
50789;SDS011;37287;47.554;7.844;2024-02-26T00:42:23;1.33;;;1.05;;
50789;SDS011;37287;47.554;7.844;2024-02-26T00:44:49;3.05;;;1.23;;
50789;SDS011;37287;47.554;7.844;2024-02-26T00:47:16;1.70;;;1.45;;
50789;SDS011;37287;47.554;7.844;2024-02-26T00:49:43;2.08;;;1.48;;
50789;SDS011;37287;47.554;7.844;2024-02-26T00:52:10;1.40;;;1.30;;
50789;SDS011;37287;47.554;7.844;2024-02-26T00:54:37;3.35;;;1.77;;
50789;SDS011;37287;47.554;7.844;2024-02-26T00:57:03;1.75;;;1.63;;
50789;SDS011;37287;47.554;7.844;2024-02-26T00:59:30;3.20;;;2.13;;
50789;SDS011;37287;47.554;7.844;2024-02-26T01:01:57;2.45;;;1.60;;
50789;SDS011;37287;47.554;7.844;2024-02-26T01:04:26;1.48;;;1.35;;
50789;SDS011;37287;47.554;7.844;2024-02-26T01:06:54;1.80;;;1.60;;
50789;SDS011;37287;47.554;7.844;2024-02-26T01:09:21;2.92;;;1.75;;
50789;SDS011;37287;47.554;7.844;2024-02-26T01:11:48;1.77;;;1.65;;
50789;SDS011;37287;47.554;7.844;2024-02-26T01:14:14;1.90;;;1.30;;
50789;SDS011;37287;47.554;7.844;2024-02-26T01:16:41;2.58;;;1.92;;
50789;SDS011;37287;47.554;7.844;2024-02-26T01:19:08;2.22;;;1.60;;
50789;SDS011;37287;47.554;7.844;2024-02-26T01:21:35;7.63;;;1.83;;
50789;SDS011;37287;47.554;7.844;2024-02-26T01:24:01;1.60;;;1.50;;
50789;SDS011;37287;47.554;7.844;2024-02-26T01:26:28;3.47;;;1.80;;
50789;SDS011;37287;47.554;7.844;2024-02-26T01:28:55;1.88;;;1.70;;
50789;SDS011;37287;47.554;7.844;2024-02-26T01:31:22;1.95;;;1.65;;
50789;SDS011;37287;47.554;7.844;2024-02-26T01:33:48;1.73;;;1.58;;
50789;SDS011;37287;47.554;7.844;2024-02-26T01:36:15;1.33;;;1.23;;
50789;SDS011;37287;47.554;7.844;2024-02-26T01:38:42;1.83;;;1.30;;
50789;SDS011;37287;47.554;7.844;2024-02-26T01:41:09;1.60;;;1.50;;
50789;SDS011;37287;47.554;7.844;2024-02-26T01:43:36;1.42;;;1.33;;
50789;SDS011;37287;47.554;7.844;2024-02-26T01:46:03;2.40;;;1.60;;
50789;SDS011;37287;47.554;7.844;2024-02-26T01:48:30;2.28;;;1.30;;
50789;SDS011;37287;47.554;7.844;2024-02-26T01:50:57;2.05;;;1.60;;
50789;SDS011;37287;47.554;7.844;2024-02-26T01:53:24;2.20;;;1.60;;
50789;SDS011;37287;47.554;7.844;2024-02-26T01:55:51;1.98;;;1.58;;
50789;SDS011;37287;47.554;7.844;2024-02-26T01:58:18;1.65;;;1.50;;
50789;SDS011;37287;47.554;7.844;2024-02-26T02:00:44;1.95;;;1.70;;
50789;SDS011;37287;47.554;7.844;2024-02-26T02:03:12;2.53;;;1.30;;
50789;SDS011;37287;47.554;7.844;2024-02-26T02:05:39;2.58;;;1.52;;
50789;SDS011;37287;47.554;7.844;2024-02-26T02:08:10;2.30;;;1.35;;
50789;SDS011;37287;47.554;7.844;2024-02-26T02:10:38;1.63;;;1.52;;
50789;SDS011;37287;47.554;7.844;2024-02-26T02:13:05;1.40;;;1.30;;
50789;SDS011;37287;47.554;7.844;2024-02-26T02:15:32;2.58;;;1.40;;
50789;SDS011;37287;47.554;7.844;2024-02-26T02:17:59;1.80;;;1.40;;
50789;SDS011;37287;47.554;7.844;2024-02-26T02:20:33;2.60;;;1.42;;
50789;SDS011;37287;47.554;7.844;2024-02-26T02:23:00;1.77;;;1.40;;
50789;SDS011;37287;47.554;7.844;2024-02-26T02:25:28;1.75;;;1.25;;
50789;SDS011;37287;47.554;7.844;2024-02-26T02:27:55;1.55;;;1.30;;
50789;SDS011;37287;47.554;7.844;2024-02-26T02:30:23;1.30;;;1.20;;
50789;SDS011;37287;47.554;7.844;2024-02-26T02:32:53;1.30;;;1.13;;
50789;SDS011;37287;47.554;7.844;2024-02-26T02:35:20;1.40;;;1.30;;
50789;SDS011;37287;47.554;7.844;2024-02-26T02:37:47;2.33;;;1.48;;
50789;SDS011;37287;47.554;7.844;2024-02-26T02:40:13;2.17;;;1.20;;
50789;SDS011;37287;47.554;7.844;2024-02-26T02:42:40;1.40;;;1.17;;
50789;SDS011;37287;47.554;7.844;2024-02-26T02:45:07;1.63;;;1.30;;
50789;SDS011;37287;47.554;7.844;2024-02-26T02:47:37;1.52;;;1.10;;
50789;SDS011;37287;47.554;7.844;2024-02-26T02:50:04;1.60;;;1.23;;
50789;SDS011;37287;47.554;7.844;2024-02-26T02:52:31;2.13;;;1.30;;
50789;SDS011;37287;47.554;7.844;2024-02-26T02:54:58;1.40;;;1.02;;
50789;SDS011;37287;47.554;7.844;2024-02-26T02:57:25;1.08;;;1.00;;
50789;SDS011;37287;47.554;7.844;2024-02-26T02:59:52;0.95;;;0.95;;
50789;SDS011;37287;47.554;7.844;2024-02-26T03:02:18;1.25;;;0.98;;
50789;SDS011;37287;47.554;7.844;2024-02-26T03:04:45;0.88;;;0.80;;
50789;SDS011;37287;47.554;7.844;2024-02-26T03:07:12;0.90;;;0.90;;
50789;SDS011;37287;47.554;7.844;2024-02-26T03:09:39;1.80;;;1.05;;
50789;SDS011;37287;47.554;7.844;2024-02-26T03:12:06;1.15;;;1.02;;
50789;SDS011;37287;47.554;7.844;2024-02-26T03:14:33;2.85;;;1.10;;
50789;SDS011;37287;47.554;7.844;2024-02-26T03:16:59;3.10;;;1.00;;
50789;SDS011;37287;47.554;7.844;2024-02-26T03:19:26;0.93;;;0.90;;
50789;SDS011;37287;47.554;7.844;2024-02-26T03:21:53;0.95;;;0.95;;
50789;SDS011;37287;47.554;7.844;2024-02-26T03:24:20;1.00;;;1.00;;
50789;SDS011;37287;47.554;7.844;2024-02-26T03:26:47;1.20;;;1.10;;
50789;SDS011;37287;47.554;7.844;2024-02-26T03:29:14;2.97;;;1.35;;
50789;SDS011;37287;47.554;7.844;2024-02-26T03:31:41;1.75;;;1.25;;
50789;SDS011;37287;47.554;7.844;2024-02-26T03:34:07;2.00;;;1.30;;
50789;SDS011;37287;47.554;7.844;2024-02-26T03:36:35;1.45;;;0.90;;
50789;SDS011;37287;47.554;7.844;2024-02-26T03:39:01;1.35;;;1.08;;
50789;SDS011;37287;47.554;7.844;2024-02-26T03:41:30;1.10;;;1.02;;
50789;SDS011;37287;47.554;7.844;2024-02-26T03:43:58;1.17;;;1.08;;
50789;SDS011;37287;47.554;7.844;2024-02-26T03:46:25;1.08;;;0.98;;
50789;SDS011;37287;47.554;7.844;2024-02-26T03:48:52;1.20;;;1.10;;
50789;SDS011;37287;47.554;7.844;2024-02-26T03:51:19;1.25;;;1.20;;
50789;SDS011;37287;47.554;7.844;2024-02-26T03:53:45;1.40;;;1.27;;
50789;SDS011;37287;47.554;7.844;2024-02-26T03:56:12;1.25;;;1.15;;
50789;SDS011;37287;47.554;7.844;2024-02-26T03:58:42;2.22;;;1.42;;
50789;SDS011;37287;47.554;7.844;2024-02-26T04:01:09;1.77;;;1.40;;
50789;SDS011;37287;47.554;7.844;2024-02-26T04:03:36;1.42;;;1.33;;
50789;SDS011;37287;47.554;7.844;2024-02-26T04:06:03;1.73;;;1.20;;
50789;SDS011;37287;47.554;7.844;2024-02-26T04:08:30;1.80;;;1.15;;
50789;SDS011;37287;47.554;7.844;2024-02-26T04:10:57;1.13;;;1.10;;
50789;SDS011;37287;47.554;7.844;2024-02-26T04:13:24;2.22;;;1.40;;
50789;SDS011;37287;47.554;7.844;2024-02-26T04:15:51;1.30;;;0.85;;
50789;SDS011;37287;47.554;7.844;2024-02-26T04:18:17;1.52;;;1.30;;
50789;SDS011;37287;47.554;7.844;2024-02-26T04:20:44;1.67;;;1.25;;
50789;SDS011;37287;47.554;7.844;2024-02-26T04:23:11;1.58;;;1.00;;
50789;SDS011;37287;47.554;7.844;2024-02-26T04:25:38;1.23;;;1.10;;
50789;SDS011;37287;47.554;7.844;2024-02-26T04:28:04;4.35;;;1.38;;
50789;SDS011;37287;47.554;7.844;2024-02-26T04:30:31;4.20;;;1.20;;
50789;SDS011;37287;47.554;7.844;2024-02-26T04:32:58;1.67;;;1.45;;
50789;SDS011;37287;47.554;7.844;2024-02-26T04:35:25;1.90;;;1.55;;
50789;SDS011;37287;47.554;7.844;2024-02-26T04:37:52;3.58;;;1.48;;
50789;SDS011;37287;47.554;7.844;2024-02-26T04:40:18;1.40;;;1.30;;
50789;SDS011;37287;47.554;7.844;2024-02-26T04:42:45;1.50;;;1.33;;
50789;SDS011;37287;47.554;7.844;2024-02-26T04:45:12;3.40;;;1.58;;
50789;SDS011;37287;47.554;7.844;2024-02-26T04:47:39;2.13;;;1.70;;
50789;SDS011;37287;47.554;7.844;2024-02-26T04:50:06;2.03;;;1.70;;
50789;SDS011;37287;47.554;7.844;2024-02-26T04:52:33;1.98;;;1.40;;
50789;SDS011;37287;47.554;7.844;2024-02-26T04:55:00;2.03;;;1.50;;
50789;SDS011;37287;47.554;7.844;2024-02-26T04:57:26;2.00;;;1.70;;
50789;SDS011;37287;47.554;7.844;2024-02-26T04:59:53;2.20;;;1.60;;
50789;SDS011;37287;47.554;7.844;2024-02-26T05:02:20;3.55;;;1.50;;
50789;SDS011;37287;47.554;7.844;2024-02-26T05:04:47;1.83;;;1.40;;
50789;SDS011;37287;47.554;7.844;2024-02-26T05:07:14;4.03;;;1.60;;
50789;SDS011;37287;47.554;7.844;2024-02-26T05:09:43;1.75;;;1.33;;
50789;SDS011;37287;47.554;7.844;2024-02-26T05:12:10;1.55;;;1.30;;
50789;SDS011;37287;47.554;7.844;2024-02-26T05:14:37;1.85;;;1.70;;
50789;SDS011;37287;47.554;7.844;2024-02-26T05:17:04;2.30;;;1.88;;
50789;SDS011;37287;47.554;7.844;2024-02-26T05:19:32;3.80;;;1.58;;
50789;SDS011;37287;47.554;7.844;2024-02-26T05:21:58;1.98;;;1.52;;
50789;SDS011;37287;47.554;7.844;2024-02-26T05:24:25;2.08;;;1.70;;
50789;SDS011;37287;47.554;7.844;2024-02-26T05:26:53;2.30;;;1.65;;
50789;SDS011;37287;47.554;7.844;2024-02-26T05:29:21;2.17;;;1.67;;
50789;SDS011;37287;47.554;7.844;2024-02-26T05:31:47;1.85;;;1.67;;
50789;SDS011;37287;47.554;7.844;2024-02-26T05:34:14;3.38;;;1.50;;
50789;SDS011;37287;47.554;7.844;2024-02-26T05:36:41;2.28;;;1.30;;
50789;SDS011;37287;47.554;7.844;2024-02-26T05:39:08;4.38;;;1.40;;
50789;SDS011;37287;47.554;7.844;2024-02-26T05:41:42;1.33;;;1.15;;
50789;SDS011;37287;47.554;7.844;2024-02-26T05:44:10;1.35;;;1.25;;
50789;SDS011;37287;47.554;7.844;2024-02-26T05:46:37;1.50;;;1.35;;
50789;SDS011;37287;47.554;7.844;2024-02-26T05:49:04;1.40;;;1.30;;
50789;SDS011;37287;47.554;7.844;2024-02-26T05:51:31;1.45;;;1.05;;
50789;SDS011;37287;47.554;7.844;2024-02-26T05:53:58;1.20;;;1.10;;
50789;SDS011;37287;47.554;7.844;2024-02-26T05:56:24;1.20;;;1.10;;
50789;SDS011;37287;47.554;7.844;2024-02-26T05:58:53;1.35;;;1.00;;
50789;SDS011;37287;47.554;7.844;2024-02-26T06:01:20;2.65;;;1.23;;
50789;SDS011;37287;47.554;7.844;2024-02-26T06:03:47;1.98;;;1.50;;
50789;SDS011;37287;47.554;7.844;2024-02-26T06:06:16;2.15;;;1.50;;
50789;SDS011;37287;47.554;7.844;2024-02-26T06:08:44;1.90;;;1.45;;
50789;SDS011;37287;47.554;7.844;2024-02-26T06:11:10;4.60;;;1.83;;
50789;SDS011;37287;47.554;7.844;2024-02-26T06:13:37;2.25;;;1.63;;
50789;SDS011;37287;47.554;7.844;2024-02-26T06:16:04;2.55;;;1.85;;
50789;SDS011;37287;47.554;7.844;2024-02-26T06:18:31;2.50;;;1.90;;
50789;SDS011;37287;47.554;7.844;2024-02-26T06:20:58;1.58;;;1.48;;
50789;SDS011;37287;47.554;7.844;2024-02-26T06:23:27;1.42;;;1.33;;
50789;SDS011;37287;47.554;7.844;2024-02-26T06:25:53;1.52;;;1.40;;
50789;SDS011;37287;47.554;7.844;2024-02-26T06:28:20;1.60;;;1.50;;
50789;SDS011;37287;47.554;7.844;2024-02-26T06:30:47;3.47;;;1.73;;
50789;SDS011;37287;47.554;7.844;2024-02-26T06:33:13;4.13;;;1.70;;
50789;SDS011;37287;47.554;7.844;2024-02-26T06:35:41;3.38;;;1.38;;
50789;SDS011;37287;47.554;7.844;2024-02-26T06:38:08;3.10;;;1.25;;
50789;SDS011;37287;47.554;7.844;2024-02-26T06:40:36;1.35;;;1.25;;
50789;SDS011;37287;47.554;7.844;2024-02-26T06:43:02;1.48;;;1.20;;
50789;SDS011;37287;47.554;7.844;2024-02-26T06:45:29;1.52;;;1.42;;
50789;SDS011;37287;47.554;7.844;2024-02-26T06:47:56;2.17;;;1.50;;
50789;SDS011;37287;47.554;7.844;2024-02-26T06:50:23;1.60;;;1.50;;
50789;SDS011;37287;47.554;7.844;2024-02-26T06:52:50;1.80;;;1.48;;
50789;SDS011;37287;47.554;7.844;2024-02-26T06:55:16;2.08;;;1.40;;
50789;SDS011;37287;47.554;7.844;2024-02-26T06:57:43;2.00;;;1.55;;
50789;SDS011;37287;47.554;7.844;2024-02-26T07:00:10;1.65;;;1.52;;
50789;SDS011;37287;47.554;7.844;2024-02-26T07:02:41;3.42;;;1.70;;
50789;SDS011;37287;47.554;7.844;2024-02-26T07:05:08;2.03;;;1.70;;
50789;SDS011;37287;47.554;7.844;2024-02-26T07:07:35;1.90;;;1.60;;
50789;SDS011;37287;47.554;7.844;2024-02-26T07:10:02;1.67;;;1.58;;
50789;SDS011;37287;47.554;7.844;2024-02-26T07:12:30;2.33;;;1.55;;
50789;SDS011;37287;47.554;7.844;2024-02-26T07:14:57;2.35;;;1.60;;
50789;SDS011;37287;47.554;7.844;2024-02-26T07:17:24;3.65;;;1.85;;
50789;SDS011;37287;47.554;7.844;2024-02-26T07:19:51;1.75;;;1.42;;
50789;SDS011;37287;47.554;7.844;2024-02-26T07:22:18;3.30;;;1.92;;
50789;SDS011;37287;47.554;7.844;2024-02-26T07:24:45;1.95;;;1.35;;
50789;SDS011;37287;47.554;7.844;2024-02-26T07:27:11;1.85;;;1.58;;
50789;SDS011;37287;47.554;7.844;2024-02-26T07:29:38;2.20;;;1.58;;
50789;SDS011;37287;47.554;7.844;2024-02-26T07:32:05;2.28;;;1.70;;
50789;SDS011;37287;47.554;7.844;2024-02-26T07:34:32;1.65;;;1.35;;
50789;SDS011;37287;47.554;7.844;2024-02-26T07:36:59;1.85;;;1.40;;
50789;SDS011;37287;47.554;7.844;2024-02-26T07:39:26;2.60;;;1.55;;
50789;SDS011;37287;47.554;7.844;2024-02-26T07:41:53;2.17;;;1.40;;
50789;SDS011;37287;47.554;7.844;2024-02-26T07:44:20;2.85;;;1.40;;
50789;SDS011;37287;47.554;7.844;2024-02-26T07:46:47;1.30;;;1.20;;
50789;SDS011;37287;47.554;7.844;2024-02-26T07:49:13;1.45;;;1.30;;
50789;SDS011;37287;47.554;7.844;2024-02-26T07:51:40;1.35;;;1.25;;
50789;SDS011;37287;47.554;7.844;2024-02-26T07:54:07;1.40;;;1.30;;
50789;SDS011;37287;47.554;7.844;2024-02-26T07:56:34;0.95;;;0.95;;
50789;SDS011;37287;47.554;7.844;2024-02-26T07:59:01;1.50;;;1.30;;
50789;SDS011;37287;47.554;7.844;2024-02-26T08:01:28;3.42;;;1.30;;
50789;SDS011;37287;47.554;7.844;2024-02-26T08:03:55;1.92;;;1.30;;
50789;SDS011;37287;47.554;7.844;2024-02-26T08:06:23;1.77;;;1.20;;
50789;SDS011;37287;47.554;7.844;2024-02-26T08:08:50;1.30;;;1.20;;
50789;SDS011;37287;47.554;7.844;2024-02-26T08:11:17;2.22;;;1.33;;
50789;SDS011;37287;47.554;7.844;2024-02-26T08:13:44;1.33;;;1.23;;
50789;SDS011;37287;47.554;7.844;2024-02-26T08:16:10;1.30;;;1.20;;
50789;SDS011;37287;47.554;7.844;2024-02-26T08:18:38;1.40;;;1.30;;
50789;SDS011;37287;47.554;7.844;2024-02-26T08:21:05;1.60;;;1.50;;
50789;SDS011;37287;47.554;7.844;2024-02-26T08:23:32;1.25;;;1.15;;
50789;SDS011;37287;47.554;7.844;2024-02-26T08:25:59;0.95;;;0.82;;
50789;SDS011;37287;47.554;7.844;2024-02-26T08:28:26;1.30;;;0.95;;
50789;SDS011;37287;47.554;7.844;2024-02-26T08:30:52;1.17;;;1.08;;
50789;SDS011;37287;47.554;7.844;2024-02-26T08:33:19;1.33;;;1.00;;
50789;SDS011;37287;47.554;7.844;2024-02-26T08:35:46;1.13;;;1.05;;
50789;SDS011;37287;47.554;7.844;2024-02-26T08:38:13;1.00;;;0.88;;
50789;SDS011;37287;47.554;7.844;2024-02-26T08:40:41;1.30;;;1.20;;
50789;SDS011;37287;47.554;7.844;2024-02-26T08:43:08;1.02;;;0.90;;
50789;SDS011;37287;47.554;7.844;2024-02-26T08:45:36;1.05;;;0.95;;
50789;SDS011;37287;47.554;7.844;2024-02-26T08:48:03;0.80;;;0.80;;
50789;SDS011;37287;47.554;7.844;2024-02-26T08:50:30;2.28;;;0.90;;
50789;SDS011;37287;47.554;7.844;2024-02-26T08:52:57;1.10;;;1.00;;
50789;SDS011;37287;47.554;7.844;2024-02-26T08:55:24;2.15;;;0.80;;
50789;SDS011;37287;47.554;7.844;2024-02-26T08:57:50;0.63;;;0.63;;
50789;SDS011;37287;47.554;7.844;2024-02-26T09:00:17;2.50;;;0.80;;
50789;SDS011;37287;47.554;7.844;2024-02-26T09:02:47;0.95;;;0.70;;
50789;SDS011;37287;47.554;7.844;2024-02-26T09:05:15;0.73;;;0.73;;
50789;SDS011;37287;47.554;7.844;2024-02-26T09:07:42;4.38;;;1.00;;
50789;SDS011;37287;47.554;7.844;2024-02-26T09:10:10;0.80;;;0.80;;
50789;SDS011;37287;47.554;7.844;2024-02-26T09:12:37;1.13;;;1.00;;
50789;SDS011;37287;47.554;7.844;2024-02-26T09:15:06;1.38;;;1.23;;
50789;SDS011;37287;47.554;7.844;2024-02-26T09:17:34;1.08;;;0.82;;
50789;SDS011;37287;47.554;7.844;2024-02-26T09:20:01;0.88;;;0.80;;
50789;SDS011;37287;47.554;7.844;2024-02-26T09:22:29;0.70;;;0.70;;
50789;SDS011;37287;47.554;7.844;2024-02-26T09:24:55;0.60;;;0.60;;
50789;SDS011;37287;47.554;7.844;2024-02-26T09:27:22;0.68;;;0.68;;
50789;SDS011;37287;47.554;7.844;2024-02-26T09:29:50;0.70;;;0.70;;
50789;SDS011;37287;47.554;7.844;2024-02-26T09:32:16;0.70;;;0.70;;
50789;SDS011;37287;47.554;7.844;2024-02-26T09:34:44;0.73;;;0.73;;
50789;SDS011;37287;47.554;7.844;2024-02-26T09:37:11;1.38;;;0.70;;
50789;SDS011;37287;47.554;7.844;2024-02-26T09:39:47;0.65;;;0.65;;
50789;SDS011;37287;47.554;7.844;2024-02-26T09:42:14;0.77;;;0.70;;
50789;SDS011;37287;47.554;7.844;2024-02-26T09:44:45;0.60;;;0.60;;
50789;SDS011;37287;47.554;7.844;2024-02-26T09:47:12;3.38;;;0.65;;
50789;SDS011;37287;47.554;7.844;2024-02-26T09:49:45;0.80;;;0.80;;
50789;SDS011;37287;47.554;7.844;2024-02-26T09:52:14;1.48;;;0.70;;
50789;SDS011;37287;47.554;7.844;2024-02-26T09:54:45;0.55;;;0.55;;
50789;SDS011;37287;47.554;7.844;2024-02-26T09:57:13;1.15;;;0.80;;
50789;SDS011;37287;47.554;7.844;2024-02-26T09:59:43;0.90;;;0.90;;
50789;SDS011;37287;47.554;7.844;2024-02-26T10:02:14;1.98;;;0.77;;
50789;SDS011;37287;47.554;7.844;2024-02-26T10:04:42;0.95;;;0.80;;
50789;SDS011;37287;47.554;7.844;2024-02-26T10:07:15;0.95;;;0.90;;
50789;SDS011;37287;47.554;7.844;2024-02-26T10:09:43;1.50;;;1.00;;
50789;SDS011;37287;47.554;7.844;2024-02-26T10:12:10;1.27;;;0.80;;
50789;SDS011;37287;47.554;7.844;2024-02-26T10:14:42;0.98;;;0.88;;
50789;SDS011;37287;47.554;7.844;2024-02-26T10:17:09;0.70;;;0.60;;
50789;SDS011;37287;47.554;7.844;2024-02-26T10:19:36;0.70;;;0.70;;
50789;SDS011;37287;47.554;7.844;2024-02-26T10:22:05;0.60;;;0.60;;
50789;SDS011;37287;47.554;7.844;2024-02-26T10:24:32;0.73;;;0.73;;
50789;SDS011;37287;47.554;7.844;2024-02-26T10:27:01;0.80;;;0.80;;
50789;SDS011;37287;47.554;7.844;2024-02-26T10:29:28;0.82;;;0.82;;
50789;SDS011;37287;47.554;7.844;2024-02-26T10:31:55;0.68;;;0.68;;
50789;SDS011;37287;47.554;7.844;2024-02-26T10:34:22;0.80;;;0.60;;
50789;SDS011;37287;47.554;7.844;2024-02-26T10:36:49;0.50;;;0.50;;
50789;SDS011;37287;47.554;7.844;2024-02-26T10:39:20;0.90;;;0.65;;
50789;SDS011;37287;47.554;7.844;2024-02-26T10:41:47;0.50;;;0.50;;
50789;SDS011;37287;47.554;7.844;2024-02-26T10:44:14;0.70;;;0.70;;
50789;SDS011;37287;47.554;7.844;2024-02-26T10:46:44;0.70;;;0.43;;
50789;SDS011;37287;47.554;7.844;2024-02-26T10:49:14;0.85;;;0.57;;
50789;SDS011;37287;47.554;7.844;2024-02-26T10:51:45;0.80;;;0.60;;
50789;SDS011;37287;47.554;7.844;2024-02-26T10:54:23;0.50;;;0.50;;
50789;SDS011;37287;47.554;7.844;2024-02-26T10:56:52;0.65;;;0.65;;
50789;SDS011;37287;47.554;7.844;2024-02-26T10:59:20;0.70;;;0.70;;
50789;SDS011;37287;47.554;7.844;2024-02-26T11:01:48;0.60;;;0.60;;
50789;SDS011;37287;47.554;7.844;2024-02-26T11:04:17;1.08;;;0.73;;
50789;SDS011;37287;47.554;7.844;2024-02-26T11:06:44;0.60;;;0.60;;
50789;SDS011;37287;47.554;7.844;2024-02-26T11:09:13;0.30;;;0.30;;
50789;SDS011;37287;47.554;7.844;2024-02-26T11:11:41;0.50;;;0.50;;
50789;SDS011;37287;47.554;7.844;2024-02-26T11:14:08;0.80;;;0.80;;
50789;SDS011;37287;47.554;7.844;2024-02-26T11:16:36;0.70;;;0.70;;
50789;SDS011;37287;47.554;7.844;2024-02-26T11:19:04;0.70;;;0.70;;
50789;SDS011;37287;47.554;7.844;2024-02-26T11:21:33;0.77;;;0.77;;
50789;SDS011;37287;47.554;7.844;2024-02-26T11:24:08;1.10;;;1.00;;
50789;SDS011;37287;47.554;7.844;2024-02-26T11:26:49;1.17;;;0.82;;
50789;SDS011;37287;47.554;7.844;2024-02-26T11:29:41;2.58;;;1.13;;
50789;SDS011;37287;47.554;7.844;2024-02-26T11:32:19;5.68;;;1.00;;
50789;SDS011;37287;47.554;7.844;2024-02-26T11:34:46;1.05;;;0.93;;
50789;SDS011;37287;47.554;7.844;2024-02-26T11:37:13;0.90;;;0.80;;
50789;SDS011;37287;47.554;7.844;2024-02-26T11:39:41;1.08;;;0.93;;
50789;SDS011;37287;47.554;7.844;2024-02-26T11:42:09;1.20;;;1.10;;
50789;SDS011;37287;47.554;7.844;2024-02-26T11:44:37;2.15;;;0.95;;
50789;SDS011;37287;47.554;7.844;2024-02-26T11:47:13;0.60;;;0.60;;
50789;SDS011;37287;47.554;7.844;2024-02-26T11:49:44;1.05;;;0.93;;
50789;SDS011;37287;47.554;7.844;2024-02-26T11:52:12;0.68;;;0.68;;
50789;SDS011;37287;47.554;7.844;2024-02-26T11:54:50;1.27;;;0.95;;
50789;SDS011;37287;47.554;7.844;2024-02-26T11:57:39;1.35;;;0.82;;
50789;SDS011;37287;47.554;7.844;2024-02-26T12:02:40;2.35;;;0.95;;
50789;SDS011;37287;47.554;7.844;2024-02-26T12:05:31;1.90;;;0.85;;
50789;SDS011;37287;47.554;7.844;2024-02-26T12:08:01;1.38;;;0.85;;
50789;SDS011;37287;47.554;7.844;2024-02-26T12:10:38;1.80;;;1.10;;
50789;SDS011;37287;47.554;7.844;2024-02-26T12:13:08;1.52;;;1.00;;
50789;SDS011;37287;47.554;7.844;2024-02-26T12:15:57;1.30;;;0.95;;
50789;SDS011;37287;47.554;7.844;2024-02-26T12:18:26;1.27;;;0.90;;
50789;SDS011;37287;47.554;7.844;2024-02-26T12:20:59;1.65;;;1.10;;
50789;SDS011;37287;47.554;7.844;2024-02-26T12:23:27;3.17;;;0.88;;
50789;SDS011;37287;47.554;7.844;2024-02-26T12:26:00;1.80;;;1.00;;
50789;SDS011;37287;47.554;7.844;2024-02-26T12:28:32;2.97;;;1.27;;
50789;SDS011;37287;47.554;7.844;2024-02-26T12:30:59;2.83;;;1.20;;
50789;SDS011;37287;47.554;7.844;2024-02-26T12:33:26;1.20;;;1.00;;
50789;SDS011;37287;47.554;7.844;2024-02-26T12:35:55;2.00;;;0.80;;
50789;SDS011;37287;47.554;7.844;2024-02-26T12:38:22;1.38;;;0.90;;
50789;SDS011;37287;47.554;7.844;2024-02-26T12:40:49;0.90;;;0.90;;
50789;SDS011;37287;47.554;7.844;2024-02-26T12:43:16;1.02;;;0.90;;
50789;SDS011;37287;47.554;7.844;2024-02-26T12:45:43;1.00;;;0.85;;
50789;SDS011;37287;47.554;7.844;2024-02-26T12:48:12;1.90;;;0.90;;
50789;SDS011;37287;47.554;7.844;2024-02-26T12:50:40;0.70;;;0.70;;
50789;SDS011;37287;47.554;7.844;2024-02-26T12:53:10;1.23;;;0.90;;
50789;SDS011;37287;47.554;7.844;2024-02-26T12:55:38;0.80;;;0.80;;
50789;SDS011;37287;47.554;7.844;2024-02-26T12:58:06;0.70;;;0.70;;
50789;SDS011;37287;47.554;7.844;2024-02-26T13:00:33;1.13;;;0.95;;
50789;SDS011;37287;47.554;7.844;2024-02-26T13:03:01;1.02;;;0.77;;
50789;SDS011;37287;47.554;7.844;2024-02-26T13:05:28;1.00;;;1.00;;
50789;SDS011;37287;47.554;7.844;2024-02-26T13:07:56;3.10;;;0.77;;
50789;SDS011;37287;47.554;7.844;2024-02-26T13:10:22;0.50;;;0.50;;
50789;SDS011;37287;47.554;7.844;2024-02-26T13:12:51;0.95;;;0.50;;
50789;SDS011;37287;47.554;7.844;2024-02-26T13:15:19;0.50;;;0.50;;
50789;SDS011;37287;47.554;7.844;2024-02-26T13:17:47;0.47;;;0.47;;
50789;SDS011;37287;47.554;7.844;2024-02-26T13:20:27;0.50;;;0.50;;
50789;SDS011;37287;47.554;7.844;2024-02-26T13:23:04;0.60;;;0.60;;
50789;SDS011;37287;47.554;7.844;2024-02-26T13:25:33;0.50;;;0.50;;
50789;SDS011;37287;47.554;7.844;2024-02-26T13:28:08;0.73;;;0.73;;
50789;SDS011;37287;47.554;7.844;2024-02-26T13:30:36;0.60;;;0.60;;
50789;SDS011;37287;47.554;7.844;2024-02-26T13:33:12;0.52;;;0.50;;
50789;SDS011;37287;47.554;7.844;2024-02-26T13:35:39;1.00;;;0.60;;
50789;SDS011;37287;47.554;7.844;2024-02-26T13:38:06;1.35;;;0.73;;
50789;SDS011;37287;47.554;7.844;2024-02-26T13:40:35;0.70;;;0.70;;
50789;SDS011;37287;47.554;7.844;2024-02-26T13:43:02;0.70;;;0.65;;
50789;SDS011;37287;47.554;7.844;2024-02-26T13:45:29;0.98;;;0.88;;
50789;SDS011;37287;47.554;7.844;2024-02-26T13:48:01;0.60;;;0.60;;
50789;SDS011;37287;47.554;7.844;2024-02-26T13:50:30;0.88;;;0.60;;
50789;SDS011;37287;47.554;7.844;2024-02-26T13:52:57;0.75;;;0.60;;
50789;SDS011;37287;47.554;7.844;2024-02-26T13:55:27;0.60;;;0.50;;
50789;SDS011;37287;47.554;7.844;2024-02-26T13:57:56;1.35;;;0.60;;
50789;SDS011;37287;47.554;7.844;2024-02-26T14:00:23;0.93;;;0.77;;
50789;SDS011;37287;47.554;7.844;2024-02-26T14:02:53;0.70;;;0.70;;
50789;SDS011;37287;47.554;7.844;2024-02-26T14:05:20;0.55;;;0.55;;
50789;SDS011;37287;47.554;7.844;2024-02-26T14:07:47;0.82;;;0.80;;
50789;SDS011;37287;47.554;7.844;2024-02-26T14:10:18;0.70;;;0.70;;
50789;SDS011;37287;47.554;7.844;2024-02-26T14:12:45;1.40;;;0.80;;
50789;SDS011;37287;47.554;7.844;2024-02-26T14:15:12;1.15;;;0.55;;
50789;SDS011;37287;47.554;7.844;2024-02-26T14:17:39;0.93;;;0.80;;
50789;SDS011;37287;47.554;7.844;2024-02-26T14:20:05;0.70;;;0.70;;
50789;SDS011;37287;47.554;7.844;2024-02-26T14:22:34;0.60;;;0.60;;
50789;SDS011;37287;47.554;7.844;2024-02-26T14:25:01;1.05;;;0.70;;
50789;SDS011;37287;47.554;7.844;2024-02-26T14:27:27;0.70;;;0.70;;
50789;SDS011;37287;47.554;7.844;2024-02-26T14:29:54;1.27;;;0.80;;
50789;SDS011;37287;47.554;7.844;2024-02-26T14:32:21;0.80;;;0.80;;
50789;SDS011;37287;47.554;7.844;2024-02-26T14:34:48;0.93;;;0.70;;
50789;SDS011;37287;47.554;7.844;2024-02-26T14:37:15;0.82;;;0.82;;
50789;SDS011;37287;47.554;7.844;2024-02-26T14:39:42;0.80;;;0.70;;
50789;SDS011;37287;47.554;7.844;2024-02-26T14:42:09;1.15;;;0.73;;
50789;SDS011;37287;47.554;7.844;2024-02-26T14:44:36;1.23;;;0.70;;
50789;SDS011;37287;47.554;7.844;2024-02-26T14:47:02;1.55;;;1.00;;
50789;SDS011;37287;47.554;7.844;2024-02-26T14:49:29;0.60;;;0.60;;
50789;SDS011;37287;47.554;7.844;2024-02-26T14:51:58;2.83;;;0.75;;
50789;SDS011;37287;47.554;7.844;2024-02-26T14:54:25;0.70;;;0.70;;